Time;durP1;ratioP1;P1;durP2;ratioP2;P2;SDS_P1;SDS_P2;PMS_P1;PMS_P2;Temp;Humidity;BMP_temperature;BMP_pressure;BME280_temperature;BME280_humidity;BME280_pressure;Samples;Min_cycle;Max_cycle;Signal;HPM_P1;HPM_P2
2022/08/06 00:00:28;;;;;;;1.70;0.32;;;17.60;99.90;;;;;;5028168;28;20198;-76
2022/08/06 00:02:59;;;;;;;1.55;0.50;;;17.70;99.90;;;;;;5031045;28;20198;-77
2022/08/06 00:05:30;;;;;;;1.85;0.40;;;17.80;99.90;;;;;;5030781;28;20194;-75
2022/08/06 00:08:02;;;;;;;2.70;1.10;;;17.80;99.90;;;;;;5032534;28;20194;-76
2022/08/06 00:10:33;;;;;;;1.67;0.70;;;17.90;99.90;;;;;;5032260;28;20198;-76
2022/08/06 00:13:04;;;;;;;1.08;0.40;;;18.00;99.90;;;;;;5032223;28;20222;-76
2022/08/06 00:15:35;;;;;;;1.05;0.32;;;18.00;99.90;;;;;;5032408;28;20190;-76
2022/08/06 00:18:06;;;;;;;1.02;0.30;;;18.00;99.90;;;;;;5032376;28;20190;-76
2022/08/06 00:20:37;;;;;;;1.25;0.30;;;18.10;99.90;;;;;;5032316;28;20190;-76
2022/08/06 00:23:09;;;;;;;2.13;0.50;;;18.20;99.90;;;;;;5032607;28;20554;-77
2022/08/06 00:25:40;;;;;;;1.65;0.40;;;18.30;99.90;;;;;;5032266;28;20197;-73
2022/08/06 00:28:11;;;;;;;2.15;0.52;;;18.30;99.90;;;;;;5032322;28;20197;-76
2022/08/06 00:30:41;;;;;;;1.30;0.98;;;18.30;99.90;;;;;;5031215;28;20218;-77
2022/08/06 00:33:12;;;;;;;1.50;0.70;;;18.50;99.90;;;;;;5031921;28;20563;-75
2022/08/06 00:35:43;;;;;;;1.33;0.60;;;18.60;99.90;;;;;;5032171;28;20598;-76
2022/08/06 00:38:15;;;;;;;1.17;0.30;;;18.70;99.90;;;;;;5032144;28;20233;-77
2022/08/06 00:40:46;;;;;;;1.50;0.40;;;18.70;99.90;;;;;;5032145;28;20592;-76
2022/08/06 00:43:17;;;;;;;0.95;0.30;;;18.80;99.90;;;;;;5032204;28;20244;-76
2022/08/06 00:45:47;;;;;;;1.00;0.30;;;18.80;99.90;;;;;;5031933;28;20195;-77
2022/08/06 00:48:18;;;;;;;0.88;0.30;;;18.70;99.90;;;;;;5033461;28;20187;-77
2022/08/06 00:50:49;;;;;;;0.43;0.30;;;18.80;99.90;;;;;;5035704;28;20194;-76
2022/08/06 00:53:21;;;;;;;0.80;0.30;;;18.70;99.90;;;;;;5035391;28;20553;-76
2022/08/06 00:55:52;;;;;;;0.77;0.30;;;18.80;99.90;;;;;;5035756;28;20190;-77
2022/08/06 00:58:23;;;;;;;0.85;0.20;;;18.80;99.90;;;;;;5035710;28;20215;-76
2022/08/06 01:00:54;;;;;;;0.30;0.20;;;18.90;99.90;;;;;;5035504;28;20190;-77
2022/08/06 01:03:24;;;;;;;1.50;0.40;;;18.90;99.90;;;;;;5035815;28;20194;-78
2022/08/06 01:05:55;;;;;;;1.65;0.40;;;19.00;99.90;;;;;;5035758;28;20194;-76
2022/08/06 01:08:27;;;;;;;0.70;0.10;;;19.10;99.90;;;;;;5035538;28;20669;-74
2022/08/06 01:10:58;;;;;;;0.73;0.30;;;19.10;99.90;;;;;;5035101;28;20309;-77
2022/08/06 01:13:29;;;;;;;1.52;0.30;;;19.10;99.90;;;;;;5035287;28;20198;-77
2022/08/06 01:16:10;;;;;;;0.57;0.30;;;19.10;99.90;;;;;;5035262;28;20194;-76
2022/08/06 01:18:53;;;;;;;0.88;0.22;;;19.20;99.90;;;;;;5035299;28;20669;-75
2022/08/06 01:21:47;;;;;;;0.40;0.30;;;19.40;99.90;;;;;;5035119;28;20288;-76
2022/08/06 01:24:37;;;;;;;0.45;0.20;;;19.50;99.90;;;;;;5015919;28;20253;-77
2022/08/06 01:27:36;;;;;;;1.80;0.30;;;19.50;99.90;;;;;;5034965;28;20582;-76
2022/08/06 01:30:09;;;;;;;1.45;0.47;;;19.60;99.90;;;;;;5032625;28;20222;-75
2022/08/06 01:32:44;;;;;;;1.02;0.30;;;19.80;99.90;;;;;;5034813;28;20213;-76
2022/08/06 01:35:20;;;;;;;0.65;0.30;;;19.90;99.90;;;;;;5035035;28;20653;-77
2022/08/06 01:37:59;;;;;;;0.88;0.40;;;19.90;99.90;;;;;;5034960;28;20213;-76
2022/08/06 01:40:33;;;;;;;1.00;0.30;;;20.10;99.90;;;;;;5031593;28;20201;-76
2022/08/06 01:43:08;;;;;;;1.15;0.35;;;20.10;99.90;;;;;;5034244;28;20205;-76
2022/08/06 01:45:41;;;;;;;0.45;0.30;;;20.10;99.90;;;;;;5034257;28;20201;-77
2022/08/06 01:48:16;;;;;;;0.60;0.43;;;20.10;99.90;;;;;;5034760;28;20187;-76
2022/08/06 01:50:51;;;;;;;0.88;0.40;;;20.20;99.90;;;;;;5034819;28;20197;-76
2022/08/06 01:53:25;;;;;;;1.35;0.40;;;20.40;99.90;;;;;;5034468;28;20681;-76
2022/08/06 01:56:01;;;;;;;0.88;0.32;;;20.50;99.90;;;;;;5034666;28;20198;-75
2022/08/06 01:58:36;;;;;;;0.50;0.30;;;20.40;99.90;;;;;;5034336;28;20193;-77
2022/08/06 02:01:09;;;;;;;0.80;0.32;;;20.30;99.90;;;;;;5033899;28;20557;-76
2022/08/06 02:03:43;;;;;;;0.55;0.30;;;20.10;99.90;;;;;;5034507;28;20205;-76
2022/08/06 02:06:17;;;;;;;3.28;0.45;;;20.10;99.90;;;;;;5034533;28;20201;-77
2022/08/06 02:08:48;;;;;;;0.68;0.28;;;20.00;99.90;;;;;;5034018;28;20197;-76
2022/08/06 02:11:19;;;;;;;0.30;0.25;;;20.20;99.90;;;;;;5032600;28;20194;-76
2022/08/06 02:13:53;;;;;;;1.35;0.40;;;20.20;99.90;;;;;;5033926;28;20642;-75
2022/08/06 02:16:27;;;;;;;0.20;0.20;;;20.10;99.90;;;;;;5034431;28;20865;-76
2022/08/06 02:19:00;;;;;;;2.92;1.63;;;20.00;99.90;;;;;;5034125;28;20595;-74
2022/08/06 02:21:33;;;;;;;0.63;0.30;;;20.10;99.90;;;;;;5034073;28;20556;-76
2022/08/06 02:24:05;;;;;;;0.52;0.30;;;20.20;99.90;;;;;;5033959;28;20191;-76
2022/08/06 02:26:37;;;;;;;0.95;0.45;;;20.20;99.90;;;;;;5033923;28;20210;-76
2022/08/06 02:29:13;;;;;;;0.57;0.30;;;20.10;99.90;;;;;;5033740;28;20194;-75
2022/08/06 02:31:44;;;;;;;0.45;0.30;;;20.10;99.90;;;;;;5033455;28;20727;-76
2022/08/06 02:34:15;;;;;;;0.82;0.40;;;20.00;99.90;;;;;;5033844;28;20190;-76
2022/08/06 02:36:51;;;;;;;1.00;0.32;;;20.00;99.90;;;;;;5033695;28;20202;-76
2022/08/06 02:39:26;;;;;;;0.50;0.30;;;19.90;99.90;;;;;;5033260;28;20228;-76
2022/08/06 02:42:05;;;;;;;0.40;0.20;;;19.80;99.90;;;;;;5033562;28;20225;-76
2022/08/06 02:44:47;;;;;;;0.57;0.32;;;19.60;99.90;;;;;;5033720;28;20214;-76
2022/08/06 02:47:23;;;;;;;0.25;0.20;;;19.30;99.90;;;;;;5033457;28;20187;-76
2022/08/06 02:50:00;;;;;;;0.82;0.30;;;19.20;99.90;;;;;;5033489;28;20661;-76
2022/08/06 02:52:34;;;;;;;0.43;0.30;;;19.20;99.90;;;;;;5032983;28;20240;-75
2022/08/06 02:55:12;;;;;;;3.70;2.20;;;19.20;99.90;;;;;;5029153;28;20200;-75
2022/08/06 02:57:48;;;;;;;0.60;0.60;;;19.30;99.90;;;;;;5028941;28;20229;-76
2022/08/06 03:00:21;;;;;;;2.30;0.40;;;19.60;99.90;;;;;;5035620;28;20194;-75
2022/08/06 03:02:55;;;;;;;0.47;0.30;;;19.80;99.90;;;;;;5030568;28;20201;-74
2022/08/06 03:05:28;;;;;;;0.68;0.20;;;19.70;99.90;;;;;;5033223;28;20194;-77
2022/08/06 03:08:00;;;;;;;2.50;0.20;;;19.50;99.90;;;;;;5032906;28;20596;-77
2022/08/06 03:10:32;;;;;;;0.55;0.20;;;19.20;99.90;;;;;;5032401;28;20197;-74
2022/08/06 03:13:05;;;;;;;0.45;0.20;;;19.00;99.90;;;;;;5032113;28;20310;-75
2022/08/06 03:15:40;;;;;;;0.57;0.30;;;19.00;99.90;;;;;;5033226;28;20259;-77
2022/08/06 03:18:12;;;;;;;0.50;0.30;;;19.20;99.90;;;;;;5033410;28;20201;-76
2022/08/06 03:20:43;;;;;;;3.33;0.80;;;19.20;99.90;;;;;;5032894;28;20205;-75
2022/08/06 03:23:17;;;;;;;1.38;0.30;;;19.10;99.90;;;;;;5032826;28;20194;-76
2022/08/06 03:25:49;;;;;;;2.33;0.15;;;18.90;99.90;;;;;;5031778;28;20568;-76
2022/08/06 03:28:20;;;;;;;2.47;0.50;;;18.70;99.90;;;;;;5035208;28;20198;-75
2022/08/06 03:30:53;;;;;;;0.82;0.22;;;18.60;99.90;;;;;;5032541;28;20225;-76
2022/08/06 03:33:25;;;;;;;1.27;0.20;;;18.50;99.90;;;;;;5027168;28;20224;-76
2022/08/06 03:35:57;;;;;;;2.75;0.43;;;18.40;99.90;;;;;;5032063;28;20215;-77
2022/08/06 03:38:29;;;;;;;0.22;0.20;;;18.30;99.90;;;;;;5032433;28;20234;-73
2022/08/06 03:41:01;;;;;;;0.77;0.20;;;18.40;99.90;;;;;;5029904;28;20209;-74
2022/08/06 03:43:32;;;;;;;0.65;0.30;;;18.50;99.90;;;;;;5030636;28;20249;-74
2022/08/06 03:46:07;;;;;;;1.42;0.40;;;18.60;99.90;;;;;;5013007;28;20195;-74
2022/08/06 03:48:42;;;;;;;0.35;0.20;;;18.90;99.90;;;;;;5028761;28;20206;-75
2022/08/06 03:51:18;;;;;;;1.35;0.15;;;19.10;99.90;;;;;;5026896;28;20660;-76
2022/08/06 03:53:51;;;;;;;2.30;0.30;;;19.40;99.90;;;;;;5031222;28;20228;-76
2022/08/06 03:56:26;;;;;;;1.05;0.20;;;19.50;99.90;;;;;;5031915;28;20677;-77
2022/08/06 03:59:00;;;;;;;0.57;0.30;;;19.50;99.90;;;;;;5030784;28;20288;-75
2022/08/06 04:01:36;;;;;;;0.20;0.20;;;19.30;99.90;;;;;;5029918;28;20202;-76
2022/08/06 04:04:09;;;;;;;0.98;0.30;;;19.10;99.90;;;;;;5029483;28;20347;-76
2022/08/06 04:06:40;;;;;;;0.73;0.30;;;18.90;99.90;;;;;;5031714;28;20186;-74
2022/08/06 04:09:11;;;;;;;0.20;0.20;;;18.90;99.90;;;;;;5029866;28;20646;-76
2022/08/06 04:11:42;;;;;;;1.23;0.40;;;18.90;99.90;;;;;;5031845;28;20197;-76
2022/08/06 04:14:15;;;;;;;1.95;0.20;;;18.90;99.90;;;;;;5031437;28;20202;-77
2022/08/06 04:16:48;;;;;;;0.82;0.28;;;18.90;99.90;;;;;;5034915;28;20217;-77
2022/08/06 04:19:20;;;;;;;0.75;0.30;;;19.00;99.90;;;;;;5026450;28;20565;-75
2022/08/06 04:21:51;;;;;;;1.00;0.28;;;18.90;99.90;;;;;;5026896;28;20202;-74
2022/08/06 04:24:22;;;;;;;0.68;0.30;;;18.70;99.90;;;;;;5035074;28;20562;-76
2022/08/06 04:26:56;;;;;;;1.40;0.32;;;18.50;99.90;;;;;;5035614;28;20198;-75
2022/08/06 04:29:27;;;;;;;2.10;0.25;;;18.40;99.90;;;;;;5037360;28;20260;-76
2022/08/06 04:32:01;;;;;;;1.38;0.30;;;18.50;99.90;;;;;;5035030;28;20203;-75
2022/08/06 04:34:32;;;;;;;0.32;0.20;;;18.50;99.90;;;;;;5033081;28;20198;-76
2022/08/06 04:37:04;;;;;;;0.65;0.40;;;18.50;99.90;;;;;;5033618;28;20206;-77
2022/08/06 04:39:36;;;;;;;1.15;0.30;;;18.50;99.90;;;;;;5036783;28;20570;-76
2022/08/06 04:42:07;;;;;;;0.55;0.30;;;18.70;99.90;;;;;;5036015;28;20202;-75
2022/08/06 04:44:39;;;;;;;0.88;0.22;;;18.80;99.90;;;;;;5035616;28;20194;-76
2022/08/06 04:47:12;;;;;;;0.55;0.30;;;18.90;99.90;;;;;;5035304;28;20201;-75
2022/08/06 04:49:43;;;;;;;0.40;0.20;;;19.10;99.90;;;;;;5035072;28;20662;-75
2022/08/06 04:52:24;;;;;;;1.02;0.20;;;19.20;99.90;;;;;;5035191;28;20214;-75
2022/08/06 04:54:55;;;;;;;1.75;0.30;;;19.20;99.90;;;;;;5034441;28;20217;-75
2022/08/06 04:57:26;;;;;;;0.30;0.20;;;19.30;99.90;;;;;;5034962;28;20236;-75
2022/08/06 04:59:56;;;;;;;1.65;0.30;;;19.30;99.90;;;;;;5034861;28;20275;-78
2022/08/06 05:02:29;;;;;;;0.70;0.30;;;19.20;99.90;;;;;;5032204;28;20191;-76
2022/08/06 05:05:00;;;;;;;1.10;0.20;;;19.20;99.90;;;;;;5031444;28;20186;-75
2022/08/06 05:07:34;;;;;;;0.85;0.28;;;19.20;99.90;;;;;;5031725;28;20190;-76
2022/08/06 05:10:06;;;;;;;2.42;0.32;;;19.20;99.90;;;;;;5028208;28;20213;-75
2022/08/06 05:12:40;;;;;;;1.52;0.30;;;19.20;99.90;;;;;;5033282;28;20210;-76
2022/08/06 05:15:17;;;;;;;0.38;0.30;;;19.10;99.90;;;;;;5034132;28;20190;-75
2022/08/06 05:17:52;;;;;;;0.88;0.30;;;19.10;99.90;;;;;;5033923;28;20275;-73
2022/08/06 05:20:23;;;;;;;0.20;0.20;;;19.10;99.90;;;;;;5033753;28;20570;-73
2022/08/06 05:22:59;;;;;;;1.38;0.20;;;19.10;99.90;;;;;;5034294;28;20194;-75
2022/08/06 05:25:30;;;;;;;0.20;0.20;;;19.10;99.90;;;;;;5028791;28;20193;-75
2022/08/06 05:28:02;;;;;;;0.28;0.20;;;19.20;99.90;;;;;;5034702;28;20194;-75
2022/08/06 05:30:32;;;;;;;0.63;0.20;;;19.10;99.90;;;;;;5031940;28;20225;-75
2022/08/06 05:33:05;;;;;;;0.22;0.20;;;19.10;99.90;;;;;;5033798;28;20225;-76
2022/08/06 05:35:36;;;;;;;1.85;0.22;;;19.00;99.90;;;;;;5034809;28;20201;-76
2022/08/06 05:38:07;;;;;;;0.30;0.20;;;19.00;99.90;;;;;;5033808;28;20221;-75
2022/08/06 05:40:37;;;;;;;0.22;0.20;;;19.00;99.90;;;;;;5033399;28;20568;-74
2022/08/06 05:43:08;;;;;;;0.55;0.20;;;19.00;99.90;;;;;;5034510;28;20201;-73
2022/08/06 05:45:41;;;;;;;1.20;0.30;;;19.00;99.90;;;;;;5037544;28;20201;-73
2022/08/06 05:48:15;;;;;;;0.60;0.20;;;19.00;99.90;;;;;;5034413;28;20190;-76
2022/08/06 05:50:50;;;;;;;0.38;0.20;;;19.00;99.90;;;;;;5033782;28;20206;-72
2022/08/06 05:53:28;;;;;;;0.77;0.20;;;19.00;99.90;;;;;;5031856;28;20215;-74
2022/08/06 05:56:02;;;;;;;0.35;0.22;;;18.90;99.90;;;;;;5033939;28;20202;-73
2022/08/06 05:58:36;;;;;;;1.55;0.30;;;18.90;99.90;;;;;;5033458;28;20599;-74
2022/08/06 06:01:09;;;;;;;0.88;0.30;;;18.70;99.90;;;;;;5033936;28;20202;-73
2022/08/06 06:03:44;;;;;;;0.32;0.32;;;18.60;99.90;;;;;;5033952;28;20214;-74
2022/08/06 06:06:17;;;;;;;0.30;0.30;;;18.60;99.90;;;;;;5033935;28;20186;-73
2022/08/06 06:08:48;;;;;;;0.50;0.30;;;18.60;99.90;;;;;;5033610;28;20220;-74
2022/08/06 06:11:20;;;;;;;0.40;0.22;;;18.60;99.90;;;;;;5033626;28;20197;-76
2022/08/06 06:13:51;;;;;;;2.15;0.30;;;18.60;99.90;;;;;;5032589;28;20755;-75
2022/08/06 06:16:30;;;;;;;0.35;0.30;;;18.70;99.90;;;;;;5034181;28;20630;-74
2022/08/06 06:19:12;;;;;;;0.20;0.13;;;18.70;99.90;;;;;;5033750;28;20226;-74
2022/08/06 06:21:50;;;;;;;3.35;0.40;;;18.60;99.90;;;;;;5024537;28;20217;-73
2022/08/06 06:24:28;;;;;;;0.30;0.30;;;18.60;99.90;;;;;;5030095;28;20194;-73
2022/08/06 06:27:04;;;;;;;0.80;0.40;;;18.60;99.90;;;;;;5033339;28;20190;-75
2022/08/06 06:29:41;;;;;;;0.28;0.20;;;18.40;99.90;;;;;;5026801;28;20580;-75
2022/08/06 06:32:20;;;;;;;0.20;0.20;;;18.20;99.90;;;;;;5031903;28;20653;-74
2022/08/06 06:34:57;;;;;;;0.40;0.20;;;18.20;99.90;;;;;;5032706;28;20218;-73
2022/08/06 06:37:39;;;;;;;0.73;0.25;;;18.20;99.90;;;;;;5033397;28;20660;-75
2022/08/06 06:40:36;;;;;;;0.80;0.32;;;18.20;99.90;;;;;;5031210;28;20272;-75
2022/08/06 06:43:12;;;;;;;0.55;0.30;;;18.10;99.90;;;;;;5029162;28;20614;-75
2022/08/06 06:45:50;;;;;;;1.25;0.28;;;18.10;99.90;;;;;;5033090;28;20194;-74
2022/08/06 06:48:26;;;;;;;1.05;0.60;;;18.00;99.90;;;;;;5033043;28;20202;-73
2022/08/06 06:51:04;;;;;;;0.88;0.50;;;17.90;99.90;;;;;;5032959;28;20561;-75
2022/08/06 06:53:48;;;;;;;0.65;0.40;;;17.80;99.90;;;;;;5033287;28;20646;-73
2022/08/06 06:56:22;;;;;;;0.60;0.40;;;17.80;99.90;;;;;;5031820;28;20206;-74
2022/08/06 06:58:57;;;;;;;1.02;0.50;;;17.70;99.90;;;;;;5032284;28;20189;-76
2022/08/06 07:01:30;;;;;;;1.17;0.60;;;17.70;99.90;;;;;;5032576;28;20190;-75
2022/08/06 07:04:07;;;;;;;1.85;0.40;;;17.60;99.90;;;;;;5033033;28;20260;-74
2022/08/06 07:06:44;;;;;;;1.23;0.40;;;17.50;99.90;;;;;;5033136;28;20186;-76
2022/08/06 07:09:19;;;;;;;1.45;0.40;;;17.50;99.90;;;;;;5032577;28;20645;-74
2022/08/06 07:11:53;;;;;;;0.85;0.50;;;17.50;99.90;;;;;;5033213;28;20197;-74
2022/08/06 07:14:26;;;;;;;1.80;0.55;;;17.40;99.90;;;;;;5033111;28;20214;-74
2022/08/06 07:16:58;;;;;;;2.97;0.50;;;17.30;99.90;;;;;;5027268;28;20558;-74
2022/08/06 07:19:30;;;;;;;1.48;0.60;;;17.20;99.90;;;;;;5030245;28;20277;-75
2022/08/06 07:22:03;;;;;;;0.55;0.43;;;17.20;99.90;;;;;;5032527;28;20194;-75
2022/08/06 07:24:36;;;;;;;0.98;0.77;;;17.10;99.90;;;;;;5034446;28;20194;-75
2022/08/06 07:27:09;;;;;;;2.00;0.75;;;17.10;99.90;;;;;;5035224;28;20193;-74
2022/08/06 07:29:42;;;;;;;1.50;0.68;;;17.00;99.90;;;;;;5031733;28;20240;-76
2022/08/06 07:32:13;;;;;;;3.05;1.45;;;17.00;99.90;;;;;;5026558;28;20293;-75
2022/08/06 07:34:45;;;;;;;3.83;2.00;;;16.90;99.90;;;;;;5032462;28;20209;-75
2022/08/06 07:37:20;;;;;;;4.80;3.05;;;16.90;99.90;;;;;;5031220;28;20268;-75
2022/08/06 07:39:52;;;;;;;4.70;3.25;;;16.90;99.90;;;;;;5031897;28;20233;-75
2022/08/06 07:42:25;;;;;;;3.97;2.58;;;16.90;99.90;;;;;;5032362;28;20201;-75
2022/08/06 07:45:00;;;;;;;3.33;1.30;;;16.80;99.90;;;;;;5032900;28;20197;-75
2022/08/06 07:47:44;;;;;;;1.92;1.30;;;16.80;99.90;;;;;;5035163;28;20571;-74
2022/08/06 07:50:16;;;;;;;1.20;0.88;;;16.70;99.90;;;;;;5033189;28;20201;-75
2022/08/06 07:52:49;;;;;;;1.50;0.95;;;16.70;99.90;;;;;;5031457;28;20190;-75
2022/08/06 07:55:21;;;;;;;2.80;1.40;;;16.70;99.90;;;;;;5032026;28;20233;-74
2022/08/06 07:57:53;;;;;;;2.22;1.25;;;16.70;99.90;;;;;;5031651;28;20195;-75
2022/08/06 08:00:24;;;;;;;1.92;0.70;;;16.70;99.90;;;;;;5030963;28;20193;-75
2022/08/06 08:08:32;;;;;;;1.10;0.70;;;16.60;99.90;;;;;;5032610;28;20329;-74
2022/08/06 08:11:03;;;;;;;1.77;0.90;;;16.60;99.90;;;;;;5030030;28;20198;-74
2022/08/06 08:13:35;;;;;;;1.60;0.70;;;16.50;99.90;;;;;;5031876;28;20612;-74
2022/08/06 08:16:07;;;;;;;1.33;0.60;;;16.50;99.90;;;;;;5032312;28;20198;-75
2022/08/06 08:18:38;;;;;;;0.60;0.47;;;16.50;99.90;;;;;;5030104;28;20238;-74
2022/08/06 08:21:10;;;;;;;1.42;0.55;;;16.50;99.90;;;;;;5033484;28;20201;-74
2022/08/06 08:23:47;;;;;;;1.95;0.88;;;16.50;99.90;;;;;;5019705;28;20191;-75
2022/08/06 08:26:17;;;;;;;2.38;0.80;;;16.40;99.90;;;;;;5036937;28;20208;-74
2022/08/06 08:28:48;;;;;;;0.80;0.70;;;16.40;99.90;;;;;;5029497;28;20195;-74
2022/08/06 08:31:19;;;;;;;2.00;0.70;;;16.50;99.90;;;;;;5029249;28;20217;-76
2022/08/06 08:33:49;;;;;;;0.75;0.60;;;16.40;99.90;;;;;;5031353;28;20222;-75
2022/08/06 08:36:21;;;;;;;1.55;0.50;;;16.40;99.90;;;;;;5029327;28;20198;-74
2022/08/06 08:38:56;;;;;;;1.10;0.50;;;16.40;99.90;;;;;;5028009;28;20245;-75
2022/08/06 08:41:30;;;;;;;1.55;0.40;;;16.30;99.90;;;;;;5031174;28;20198;-75
2022/08/06 08:44:05;;;;;;;0.93;0.40;;;16.30;99.90;;;;;;5035001;28;20232;-74
2022/08/06 08:46:39;;;;;;;1.75;0.50;;;16.30;99.90;;;;;;5030597;28;20276;-75
2022/08/06 08:49:21;;;;;;;2.25;0.70;;;16.30;99.90;;;;;;5024211;28;20246;-74
2022/08/06 08:51:53;;;;;;;1.05;0.57;;;16.20;99.90;;;;;;5026977;28;20233;-75
2022/08/06 08:54:28;;;;;;;1.00;0.60;;;16.10;99.90;;;;;;5029255;28;20300;-75
2022/08/06 08:57:00;;;;;;;1.00;0.60;;;16.10;99.90;;;;;;5030975;28;20201;-75
2022/08/06 08:59:31;;;;;;;1.67;0.80;;;16.00;99.90;;;;;;5030370;28;20206;-75
2022/08/06 09:02:02;;;;;;;2.47;0.70;;;15.90;99.90;;;;;;5028396;28;20282;-74
2022/08/06 09:04:35;;;;;;;1.60;0.93;;;15.90;99.90;;;;;;5031224;28;20186;-75
2022/08/06 09:07:06;;;;;;;0.85;0.75;;;15.90;99.90;;;;;;5028675;28;20190;-75
2022/08/06 09:09:41;;;;;;;2.35;1.00;;;15.80;99.90;;;;;;5030952;28;20210;-76
2022/08/06 09:12:12;;;;;;;1.48;0.82;;;15.80;99.90;;;;;;5033588;28;20202;-75
2022/08/06 09:14:43;;;;;;;1.83;0.80;;;15.70;99.90;;;;;;5035155;28;20558;-75
2022/08/06 09:17:14;;;;;;;3.05;1.10;;;15.60;99.90;;;;;;5033998;28;20244;-74
2022/08/06 09:19:46;;;;;;;2.13;1.17;;;15.50;99.90;;;;;;5033075;28;20556;-75
2022/08/06 09:22:17;;;;;;;1.27;1.15;;;15.50;99.90;;;;;;5033983;28;20631;-76
2022/08/06 09:24:49;;;;;;;2.30;1.38;;;15.40;99.90;;;;;;5032335;28;20201;-75
2022/08/06 09:27:21;;;;;;;1.85;1.20;;;15.40;99.90;;;;;;5032879;28;20214;-74
2022/08/06 09:29:54;;;;;;;3.15;1.30;;;15.30;99.90;;;;;;5032594;28;20231;-74
2022/08/06 09:32:43;;;;;;;1.70;1.10;;;15.30;99.90;;;;;;5031759;28;20198;-75
2022/08/06 09:35:21;;;;;;;2.72;1.20;;;15.30;99.90;;;;;;5033235;28;20218;-74
2022/08/06 09:37:52;;;;;;;1.88;1.00;;;15.30;99.90;;;;;;5035056;28;20197;-75
2022/08/06 09:40:25;;;;;;;2.42;0.95;;;15.30;99.90;;;;;;5021080;28;20203;-75
2022/08/06 09:42:56;;;;;;;2.22;1.10;;;15.20;99.90;;;;;;5028353;28;20198;-75
2022/08/06 09:45:27;;;;;;;1.77;1.00;;;15.20;99.90;;;;;;5034920;28;20197;-74
2022/08/06 09:48:05;;;;;;;2.20;0.95;;;15.20;99.90;;;;;;5037392;28;20198;-75
2022/08/06 09:50:41;;;;;;;1.00;0.85;;;15.20;99.90;;;;;;5034635;28;20201;-74
2022/08/06 09:53:12;;;;;;;1.40;1.00;;;15.20;99.90;;;;;;5034412;28;20268;-74
2022/08/06 09:55:45;;;;;;;2.42;1.05;;;15.20;99.90;;;;;;5031414;28;20214;-75
2022/08/06 09:58:16;;;;;;;1.45;0.90;;;15.20;99.90;;;;;;5031172;28;20206;-75
2022/08/06 10:00:46;;;;;;;1.38;0.70;;;15.20;99.90;;;;;;5033076;28;20202;-76
2022/08/06 10:03:17;;;;;;;1.80;0.70;;;15.10;99.90;;;;;;5034214;28;20202;-75
2022/08/06 10:05:48;;;;;;;1.20;0.70;;;15.10;99.90;;;;;;5034019;28;20206;-75
2022/08/06 10:08:21;;;;;;;1.70;0.60;;;15.10;99.90;;;;;;5034120;28;20195;-75
2022/08/06 10:10:54;;;;;;;1.08;0.57;;;15.10;99.90;;;;;;5030188;28;20684;-75
2022/08/06 10:13:26;;;;;;;0.93;0.60;;;15.00;99.90;;;;;;5034093;28;20195;-75
2022/08/06 10:15:57;;;;;;;1.33;0.70;;;15.00;99.90;;;;;;5034592;28;20222;-74
2022/08/06 10:18:39;;;;;;;1.95;0.95;;;14.90;99.90;;;;;;5032922;28;20699;-73
2022/08/06 10:21:12;;;;;;;2.83;0.77;;;14.90;99.90;;;;;;5030632;28;20198;-73
2022/08/06 10:23:43;;;;;;;3.25;1.27;;;14.80;99.90;;;;;;5031520;28;20209;-75
2022/08/06 10:26:18;;;;;;;1.67;1.20;;;14.80;99.90;;;;;;5030828;28;20676;-76
2022/08/06 10:28:51;;;;;;;3.55;1.40;;;14.70;99.90;;;;;;5026687;28;20212;-76
2022/08/06 10:31:22;;;;;;;4.53;1.65;;;14.70;99.90;;;;;;5033121;28;20206;-76
2022/08/06 10:33:58;;;;;;;3.33;1.40;;;14.70;99.90;;;;;;5032253;28;20240;-76
2022/08/06 10:36:33;;;;;;;4.45;1.50;;;14.60;99.90;;;;;;5033715;28;20194;-76
2022/08/06 10:39:06;;;;;;;3.45;1.50;;;14.60;99.90;;;;;;5032439;28;20573;-75
2022/08/06 10:41:40;;;;;;;2.30;1.15;;;14.50;99.90;;;;;;5031564;28;20229;-76
2022/08/06 10:44:12;;;;;;;2.40;1.20;;;14.50;99.90;;;;;;5032013;28;20254;-75
2022/08/06 10:46:44;;;;;;;2.65;1.10;;;14.50;99.90;;;;;;5032725;28;20213;-74
2022/08/06 10:49:15;;;;;;;1.63;1.08;;;14.40;99.90;;;;;;5036099;28;20197;-74
2022/08/06 10:51:46;;;;;;;2.15;1.20;;;14.40;99.90;;;;;;5024213;28;20190;-75
2022/08/06 10:54:17;;;;;;;3.35;1.20;;;14.40;99.90;;;;;;5028444;28;20237;-73
2022/08/06 10:56:53;;;;;;;2.03;1.10;;;14.40;99.90;;;;;;5032631;28;20202;-73
2022/08/06 10:59:24;;;;;;;3.80;1.15;;;14.30;99.90;;;;;;5032227;28;20657;-73
2022/08/06 11:02:03;;;;;;;2.03;1.15;;;14.30;99.90;;;;;;5031346;28;20198;-75
2022/08/06 11:04:48;;;;;;;1.65;1.30;;;14.30;99.90;;;;;;5031191;28;20238;-75
2022/08/06 11:07:48;;;;;;;3.63;1.40;;;14.30;99.90;;;;;;5031341;28;20289;-75
2022/08/06 11:10:39;;;;;;;2.88;1.38;;;14.20;99.90;;;;;;5031375;28;20198;-75
2022/08/06 11:13:21;;;;;;;1.92;1.23;;;14.20;99.90;;;;;;5033222;28;20195;-76
2022/08/06 11:15:52;;;;;;;1.83;1.25;;;14.20;99.90;;;;;;5031578;28;20222;-75
2022/08/06 11:18:23;;;;;;;2.60;1.33;;;14.10;99.90;;;;;;5032343;28;20205;-74
2022/08/06 11:20:54;;;;;;;5.03;1.33;;;14.10;99.90;;;;;;5030543;28;20203;-73
2022/08/06 11:23:31;;;;;;;2.10;1.23;;;14.10;99.90;;;;;;5032250;28;20680;-73
2022/08/06 11:26:03;;;;;;;2.35;1.10;;;14.10;99.90;;;;;;5031928;28;20276;-72
2022/08/06 11:29:02;;;;;;;2.65;1.23;;;14.10;99.90;;;;;;5032177;28;20198;-73
2022/08/06 11:31:47;;;;;;;2.22;1.13;;;14.10;99.90;;;;;;5030536;28;20194;-73
2022/08/06 11:34:19;;;;;;;1.75;1.00;;;14.00;99.90;;;;;;5012810;28;20195;-73
2022/08/06 11:36:52;;;;;;;1.92;1.30;;;14.00;99.90;;;;;;5029597;28;20206;-72
2022/08/06 11:39:24;;;;;;;1.48;1.00;;;14.00;99.90;;;;;;5031348;28;20230;-73
2022/08/06 11:42:01;;;;;;;3.03;1.10;;;14.00;99.90;;;;;;5027315;28;20561;-73
2022/08/06 11:44:35;;;;;;;3.22;1.10;;;14.00;99.90;;;;;;5029502;28;20747;-73
2022/08/06 11:47:18;;;;;;;2.05;1.00;;;14.00;99.90;;;;;;5032250;28;20237;-73
2022/08/06 11:49:50;;;;;;;2.63;1.20;;;13.90;99.90;;;;;;5032102;28;20202;-73
2022/08/06 11:52:42;;;;;;;2.97;1.27;;;13.90;99.90;;;;;;5030555;28;20194;-73
2022/08/06 11:55:16;;;;;;;2.35;1.30;;;13.90;99.90;;;;;;5027670;28;20237;-72
2022/08/06 11:57:46;;;;;;;1.88;1.40;;;13.80;99.90;;;;;;5031785;28;20194;-73
2022/08/06 12:00:24;;;;;;;3.28;1.30;;;13.80;99.90;;;;;;5031673;28;20206;-73
2022/08/06 12:02:59;;;;;;;4.07;1.90;;;13.80;99.90;;;;;;5033848;28;20198;-73
2022/08/06 12:05:39;;;;;;;3.28;1.50;;;13.80;99.90;;;;;;5026415;28;20551;-72
2022/08/06 12:08:27;;;;;;;3.47;1.77;;;13.80;99.90;;;;;;5029331;28;20205;-73
2022/08/06 12:11:35;;;;;;;3.38;1.30;;;13.80;99.90;;;;;;5035067;28;20661;-73
2022/08/06 12:14:07;;;;;;;1.90;1.52;;;13.70;99.90;;;;;;5018333;28;20182;-72
2022/08/06 12:16:43;;;;;;;2.72;1.70;;;13.70;99.90;;;;;;5029308;28;20300;-72
2022/08/06 12:19:17;;;;;;;2.75;1.58;;;13.70;99.90;;;;;;5031170;28;20201;-73
2022/08/06 12:21:55;;;;;;;3.20;1.58;;;13.70;99.90;;;;;;5031079;28;20201;-72
2022/08/06 12:24:29;;;;;;;4.07;1.67;;;13.70;99.90;;;;;;5031257;28;20225;-73
2022/08/06 12:27:00;;;;;;;3.65;1.80;;;13.60;99.90;;;;;;5030533;28;20182;-74
2022/08/06 12:29:35;;;;;;;3.00;1.50;;;13.70;99.90;;;;;;5025375;28;20226;-74
2022/08/06 12:32:23;;;;;;;3.13;1.42;;;13.70;99.90;;;;;;5034157;28;20194;-73
2022/08/06 12:34:55;;;;;;;3.65;1.75;;;13.60;99.90;;;;;;5031345;28;20708;-73
2022/08/06 12:37:37;;;;;;;2.75;1.58;;;13.60;99.90;;;;;;5031419;28;20189;-73
2022/08/06 12:40:28;;;;;;;2.72;1.48;;;13.60;99.90;;;;;;5029598;28;20234;-73
2022/08/06 12:43:13;;;;;;;3.60;1.55;;;13.50;99.90;;;;;;5032199;28;20256;-72
2022/08/06 12:45:44;;;;;;;3.35;1.60;;;13.50;99.90;;;;;;5035729;28;20186;-73
2022/08/06 12:48:17;;;;;;;4.75;1.60;;;13.50;99.90;;;;;;5035614;28;20187;-73
2022/08/06 12:50:47;;;;;;;5.13;1.90;;;13.40;99.90;;;;;;5034277;28;20195;-72
2022/08/06 12:53:19;;;;;;;2.97;1.67;;;13.40;99.90;;;;;;5035779;28;20252;-73
2022/08/06 12:55:51;;;;;;;4.00;1.77;;;13.40;99.90;;;;;;5038754;28;20217;-73
2022/08/06 12:58:25;;;;;;;3.63;1.70;;;13.30;99.90;;;;;;5039143;28;20194;-74
2022/08/06 13:00:58;;;;;;;3.38;1.55;;;13.30;99.90;;;;;;5034411;28;20740;-73
2022/08/06 13:03:31;;;;;;;2.25;1.38;;;13.30;99.90;;;;;;5033331;28;20201;-73
2022/08/06 13:06:04;;;;;;;3.38;1.58;;;13.20;99.90;;;;;;5038309;28;20202;-72
2022/08/06 13:08:36;;;;;;;2.53;1.60;;;13.20;99.90;;;;;;5038169;28;20604;-76
2022/08/06 13:11:06;;;;;;;2.30;1.50;;;13.20;99.90;;;;;;5034575;28;20202;-72
2022/08/06 13:13:42;;;;;;;3.85;1.40;;;13.10;99.90;;;;;;5033772;28;20206;-72
2022/08/06 13:16:15;;;;;;;2.53;1.33;;;13.10;99.90;;;;;;5033921;28;20224;-74
2022/08/06 13:19:08;;;;;;;2.45;1.30;;;13.10;99.90;;;;;;5037996;28;20198;-73
2022/08/06 13:21:39;;;;;;;2.65;1.35;;;13.10;99.90;;;;;;5033514;28;20198;-73
2022/08/06 13:24:11;;;;;;;4.38;1.40;;;13.10;99.90;;;;;;5030410;28;20194;-74
2022/08/06 13:26:53;;;;;;;2.05;1.40;;;13.10;99.90;;;;;;5034132;28;20201;-74
2022/08/06 13:29:25;;;;;;;3.65;1.40;;;13.00;99.90;;;;;;5033929;28;20214;-72